sensor_id;sensor_type;location;lat;lon;timestamp;P1;durP1;ratioP1;P2;durP2;ratioP2
26211;SDS011;13951;49.516;6.094;2022-12-05T00:01:33;6.37;;;3.33;;
26211;SDS011;13951;49.516;6.094;2022-12-05T00:04:09;6.07;;;2.90;;
26211;SDS011;13951;49.516;6.094;2022-12-05T00:06:42;9.20;;;3.20;;
26211;SDS011;13951;49.516;6.094;2022-12-05T00:09:15;5.87;;;3.10;;
26211;SDS011;13951;49.516;6.094;2022-12-05T00:11:48;4.20;;;2.87;;
26211;SDS011;13951;49.516;6.094;2022-12-05T00:14:21;6.33;;;2.73;;
26211;SDS011;13951;49.516;6.094;2022-12-05T00:16:54;6.57;;;3.17;;
26211;SDS011;13951;49.516;6.094;2022-12-05T00:19:27;6.03;;;3.03;;
26211;SDS011;13951;49.516;6.094;2022-12-05T00:22:00;5.40;;;2.90;;
26211;SDS011;13951;49.516;6.094;2022-12-05T00:24:33;6.43;;;3.10;;
26211;SDS011;13951;49.516;6.094;2022-12-05T00:27:06;4.37;;;2.50;;
26211;SDS011;13951;49.516;6.094;2022-12-05T00:29:39;6.73;;;3.83;;
26211;SDS011;13951;49.516;6.094;2022-12-05T00:32:12;8.13;;;4.73;;
26211;SDS011;13951;49.516;6.094;2022-12-05T00:34:45;9.53;;;3.17;;
26211;SDS011;13951;49.516;6.094;2022-12-05T00:37:18;5.67;;;3.10;;
26211;SDS011;13951;49.516;6.094;2022-12-05T00:39:51;3.90;;;2.20;;
26211;SDS011;13951;49.516;6.094;2022-12-05T00:42:24;6.83;;;2.80;;
26211;SDS011;13951;49.516;6.094;2022-12-05T00:44:57;5.17;;;3.03;;
26211;SDS011;13951;49.516;6.094;2022-12-05T00:47:33;7.03;;;2.97;;
26211;SDS011;13951;49.516;6.094;2022-12-05T00:50:06;6.40;;;3.17;;
26211;SDS011;13951;49.516;6.094;2022-12-05T00:52:39;4.47;;;3.03;;
26211;SDS011;13951;49.516;6.094;2022-12-05T00:55:12;6.53;;;3.23;;
26211;SDS011;13951;49.516;6.094;2022-12-05T00:57:45;6.97;;;3.60;;
26211;SDS011;13951;49.516;6.094;2022-12-05T01:00:18;4.70;;;2.90;;
26211;SDS011;13951;49.516;6.094;2022-12-05T01:02:51;4.87;;;3.10;;
26211;SDS011;13951;49.516;6.094;2022-12-05T01:05:24;7.37;;;3.17;;
26211;SDS011;13951;49.516;6.094;2022-12-05T01:07:57;5.30;;;2.80;;
26211;SDS011;13951;49.516;6.094;2022-12-05T01:10:30;5.77;;;2.87;;
26211;SDS011;13951;49.516;6.094;2022-12-05T01:13:03;7.00;;;2.83;;
26211;SDS011;13951;49.516;6.094;2022-12-05T01:15:36;5.93;;;2.87;;
26211;SDS011;13951;49.516;6.094;2022-12-05T01:18:10;7.97;;;3.33;;
26211;SDS011;13951;49.516;6.094;2022-12-05T01:20:43;5.57;;;3.23;;
26211;SDS011;13951;49.516;6.094;2022-12-05T01:23:16;4.03;;;2.67;;
26211;SDS011;13951;49.516;6.094;2022-12-05T01:25:50;6.80;;;3.10;;
26211;SDS011;13951;49.516;6.094;2022-12-05T01:28:24;8.02;;;4.72;;
26211;SDS011;13951;49.516;6.094;2022-12-05T01:30:57;7.83;;;3.80;;
26211;SDS011;13951;49.516;6.094;2022-12-05T01:33:30;6.17;;;3.03;;
26211;SDS011;13951;49.516;6.094;2022-12-05T01:36:03;6.10;;;3.17;;
26211;SDS011;13951;49.516;6.094;2022-12-05T01:38:39;4.63;;;2.70;;
26211;SDS011;13951;49.516;6.094;2022-12-05T01:41:16;5.20;;;2.77;;
26211;SDS011;13951;49.516;6.094;2022-12-05T01:43:53;7.27;;;3.27;;
26211;SDS011;13951;49.516;6.094;2022-12-05T01:46:28;7.50;;;3.90;;
26211;SDS011;13951;49.516;6.094;2022-12-05T01:49:06;6.57;;;3.57;;
26211;SDS011;13951;49.516;6.094;2022-12-05T01:51:42;6.93;;;3.33;;
26211;SDS011;13951;49.516;6.094;2022-12-05T01:54:16;5.80;;;3.23;;
26211;SDS011;13951;49.516;6.094;2022-12-05T01:56:52;9.00;;;3.90;;
26211;SDS011;13951;49.516;6.094;2022-12-05T01:59:28;6.93;;;3.00;;
26211;SDS011;13951;49.516;6.094;2022-12-05T02:02:02;4.73;;;2.93;;
26211;SDS011;13951;49.516;6.094;2022-12-05T02:04:36;8.07;;;3.30;;
26211;SDS011;13951;49.516;6.094;2022-12-05T02:07:10;5.90;;;3.17;;
26211;SDS011;13951;49.516;6.094;2022-12-05T02:09:43;5.77;;;3.10;;
26211;SDS011;13951;49.516;6.094;2022-12-05T02:12:16;4.80;;;2.73;;
26211;SDS011;13951;49.516;6.094;2022-12-05T02:14:55;5.23;;;3.07;;
26211;SDS011;13951;49.516;6.094;2022-12-05T02:17:35;9.00;;;3.57;;
26211;SDS011;13951;49.516;6.094;2022-12-05T02:20:16;5.70;;;3.03;;
26211;SDS011;13951;49.516;6.094;2022-12-05T02:30:42;4.20;;;2.70;;
26211;SDS011;13951;49.516;6.094;2022-12-05T02:44:38;5.63;;;3.10;;
26211;SDS011;13951;49.516;6.094;2022-12-05T02:46:50;5.07;;;3.00;;
26211;SDS011;13951;49.516;6.094;2022-12-05T02:49:25;5.30;;;3.10;;
26211;SDS011;13951;49.516;6.094;2022-12-05T02:52:00;5.53;;;2.67;;
26211;SDS011;13951;49.516;6.094;2022-12-05T02:54:35;7.17;;;3.10;;
26211;SDS011;13951;49.516;6.094;2022-12-05T02:57:10;5.37;;;2.90;;
26211;SDS011;13951;49.516;6.094;2022-12-05T02:59:44;7.20;;;3.37;;
26211;SDS011;13951;49.516;6.094;2022-12-05T03:02:21;9.97;;;3.10;;
26211;SDS011;13951;49.516;6.094;2022-12-05T03:04:57;5.80;;;3.00;;
26211;SDS011;13951;49.516;6.094;2022-12-05T03:07:30;6.10;;;3.00;;
26211;SDS011;13951;49.516;6.094;2022-12-05T03:10:05;5.40;;;2.50;;
26211;SDS011;13951;49.516;6.094;2022-12-05T03:12:41;5.47;;;3.00;;
26211;SDS011;13951;49.516;6.094;2022-12-05T03:15:17;4.70;;;3.10;;
26211;SDS011;13951;49.516;6.094;2022-12-05T03:17:52;7.33;;;3.60;;
26211;SDS011;13951;49.516;6.094;2022-12-05T03:20:26;6.63;;;2.93;;
26211;SDS011;13951;49.516;6.094;2022-12-05T03:23:08;7.30;;;3.13;;
26211;SDS011;13951;49.516;6.094;2022-12-05T03:25:53;4.23;;;2.90;;
26211;SDS011;13951;49.516;6.094;2022-12-05T03:28:36;5.13;;;3.03;;
26211;SDS011;13951;49.516;6.094;2022-12-05T03:31:11;5.70;;;2.67;;
26211;SDS011;13951;49.516;6.094;2022-12-05T03:33:46;6.45;;;3.95;;
26211;SDS011;13951;49.516;6.094;2022-12-05T03:36:22;5.13;;;3.03;;
26211;SDS011;13951;49.516;6.094;2022-12-05T03:38:56;6.37;;;3.43;;
26211;SDS011;13951;49.516;6.094;2022-12-05T03:41:53;6.17;;;2.83;;
26211;SDS011;13951;49.516;6.094;2022-12-05T03:44:37;4.43;;;2.83;;
26211;SDS011;13951;49.516;6.094;2022-12-05T03:47:19;5.73;;;3.17;;
26211;SDS011;13951;49.516;6.094;2022-12-05T03:49:57;5.93;;;3.07;;
26211;SDS011;13951;49.516;6.094;2022-12-05T03:52:45;6.30;;;3.93;;
26211;SDS011;13951;49.516;6.094;2022-12-05T03:55:40;7.07;;;3.23;;
26211;SDS011;13951;49.516;6.094;2022-12-05T03:58:16;5.90;;;3.33;;
26211;SDS011;13951;49.516;6.094;2022-12-05T04:00:50;6.03;;;3.07;;
26211;SDS011;13951;49.516;6.094;2022-12-05T04:03:47;7.00;;;2.77;;
26211;SDS011;13951;49.516;6.094;2022-12-05T04:06:20;4.53;;;2.47;;
26211;SDS011;13951;49.516;6.094;2022-12-05T04:08:58;5.53;;;3.20;;
26211;SDS011;13951;49.516;6.094;2022-12-05T04:11:33;6.43;;;3.07;;
26211;SDS011;13951;49.516;6.094;2022-12-05T04:14:08;5.80;;;2.83;;
26211;SDS011;13951;49.516;6.094;2022-12-05T04:16:44;4.97;;;2.67;;
26211;SDS011;13951;49.516;6.094;2022-12-05T04:19:46;4.00;;;2.70;;
26211;SDS011;13951;49.516;6.094;2022-12-05T04:22:37;4.17;;;2.50;;
26211;SDS011;13951;49.516;6.094;2022-12-05T04:25:11;3.90;;;2.57;;
26211;SDS011;13951;49.516;6.094;2022-12-05T04:28:13;4.10;;;2.40;;
26211;SDS011;13951;49.516;6.094;2022-12-05T04:31:02;4.83;;;2.57;;
26211;SDS011;13951;49.516;6.094;2022-12-05T04:33:52;4.73;;;2.70;;
26211;SDS011;13951;49.516;6.094;2022-12-05T04:36:31;3.67;;;2.20;;
26211;SDS011;13951;49.516;6.094;2022-12-05T04:39:06;4.97;;;2.97;;
26211;SDS011;13951;49.516;6.094;2022-12-05T04:41:57;7.00;;;3.30;;
26211;SDS011;13951;49.516;6.094;2022-12-05T04:44:33;5.20;;;2.43;;
26211;SDS011;13951;49.516;6.094;2022-12-05T04:47:08;5.97;;;3.03;;
26211;SDS011;13951;49.516;6.094;2022-12-05T04:49:42;5.47;;;3.03;;
26211;SDS011;13951;49.516;6.094;2022-12-05T04:52:23;7.87;;;3.30;;
26211;SDS011;13951;49.516;6.094;2022-12-05T04:54:58;5.03;;;2.77;;
26211;SDS011;13951;49.516;6.094;2022-12-05T04:57:32;6.43;;;3.20;;
26211;SDS011;13951;49.516;6.094;2022-12-05T05:00:08;7.03;;;3.67;;
26211;SDS011;13951;49.516;6.094;2022-12-05T05:02:44;6.20;;;3.07;;
26211;SDS011;13951;49.516;6.094;2022-12-05T05:05:18;6.20;;;3.10;;
26211;SDS011;13951;49.516;6.094;2022-12-05T05:07:52;7.40;;;3.27;;
26211;SDS011;13951;49.516;6.094;2022-12-05T05:10:30;7.03;;;3.50;;
26211;SDS011;13951;49.516;6.094;2022-12-05T05:13:04;6.80;;;3.10;;
26211;SDS011;13951;49.516;6.094;2022-12-05T05:15:37;8.87;;;3.87;;
26211;SDS011;13951;49.516;6.094;2022-12-05T05:18:10;7.23;;;3.33;;
26211;SDS011;13951;49.516;6.094;2022-12-05T05:20:43;11.07;;;4.88;;
26211;SDS011;13951;49.516;6.094;2022-12-05T05:23:16;7.03;;;3.93;;
26211;SDS011;13951;49.516;6.094;2022-12-05T05:25:52;4.80;;;3.13;;
26211;SDS011;13951;49.516;6.094;2022-12-05T05:28:25;7.50;;;3.63;;
26211;SDS011;13951;49.516;6.094;2022-12-05T05:31:02;5.70;;;3.00;;
26211;SDS011;13951;49.516;6.094;2022-12-05T05:33:39;8.97;;;3.43;;
26211;SDS011;13951;49.516;6.094;2022-12-05T05:36:12;8.13;;;3.40;;
26211;SDS011;13951;49.516;6.094;2022-12-05T05:38:46;8.50;;;3.40;;
26211;SDS011;13951;49.516;6.094;2022-12-05T05:41:20;8.33;;;3.50;;
26211;SDS011;13951;49.516;6.094;2022-12-05T05:43:54;5.80;;;3.00;;
26211;SDS011;13951;49.516;6.094;2022-12-05T05:46:28;5.87;;;3.23;;
26211;SDS011;13951;49.516;6.094;2022-12-05T05:49:02;7.07;;;3.73;;
26211;SDS011;13951;49.516;6.094;2022-12-05T05:51:35;7.23;;;3.57;;
26211;SDS011;13951;49.516;6.094;2022-12-05T05:54:08;11.30;;;5.28;;
26211;SDS011;13951;49.516;6.094;2022-12-05T05:56:41;8.10;;;3.73;;
26211;SDS011;13951;49.516;6.094;2022-12-05T05:59:14;7.33;;;3.57;;
26211;SDS011;13951;49.516;6.094;2022-12-05T06:01:47;8.03;;;3.70;;
26211;SDS011;13951;49.516;6.094;2022-12-05T06:04:20;9.30;;;3.73;;
26211;SDS011;13951;49.516;6.094;2022-12-05T06:06:53;9.07;;;3.57;;
26211;SDS011;13951;49.516;6.094;2022-12-05T06:09:26;7.70;;;4.07;;
26211;SDS011;13951;49.516;6.094;2022-12-05T06:11:59;9.57;;;4.03;;
26211;SDS011;13951;49.516;6.094;2022-12-05T06:14:32;7.83;;;3.70;;
26211;SDS011;13951;49.516;6.094;2022-12-05T06:17:04;5.97;;;3.33;;
26211;SDS011;13951;49.516;6.094;2022-12-05T06:19:37;10.93;;;3.53;;
26211;SDS011;13951;49.516;6.094;2022-12-05T06:22:10;7.53;;;3.23;;
26211;SDS011;13951;49.516;6.094;2022-12-05T06:24:43;8.47;;;3.50;;
26211;SDS011;13951;49.516;6.094;2022-12-05T06:27:16;10.73;;;4.03;;
26211;SDS011;13951;49.516;6.094;2022-12-05T06:29:49;9.67;;;3.87;;
26211;SDS011;13951;49.516;6.094;2022-12-05T06:32:22;9.23;;;3.87;;
26211;SDS011;13951;49.516;6.094;2022-12-05T06:34:55;7.10;;;3.57;;
26211;SDS011;13951;49.516;6.094;2022-12-05T06:37:28;7.33;;;3.87;;
26211;SDS011;13951;49.516;6.094;2022-12-05T06:40:01;6.83;;;3.83;;
26211;SDS011;13951;49.516;6.094;2022-12-05T06:42:34;9.03;;;4.27;;
26211;SDS011;13951;49.516;6.094;2022-12-05T06:45:07;8.60;;;3.97;;
26211;SDS011;13951;49.516;6.094;2022-12-05T06:47:40;8.17;;;4.10;;
26211;SDS011;13951;49.516;6.094;2022-12-05T06:50:13;9.30;;;4.87;;
26211;SDS011;13951;49.516;6.094;2022-12-05T06:52:46;8.53;;;4.00;;
26211;SDS011;13951;49.516;6.094;2022-12-05T06:55:19;11.23;;;5.00;;
26211;SDS011;13951;49.516;6.094;2022-12-05T06:57:52;6.37;;;3.60;;
26211;SDS011;13951;49.516;6.094;2022-12-05T07:00:25;11.10;;;4.23;;
26211;SDS011;13951;49.516;6.094;2022-12-05T07:03:16;10.80;;;4.50;;
26211;SDS011;13951;49.516;6.094;2022-12-05T07:05:49;11.50;;;5.27;;
26211;SDS011;13951;49.516;6.094;2022-12-05T07:08:22;8.93;;;3.87;;
26211;SDS011;13951;49.516;6.094;2022-12-05T07:10:55;12.53;;;5.73;;
26211;SDS011;13951;49.516;6.094;2022-12-05T07:13:28;9.97;;;4.63;;
26211;SDS011;13951;49.516;6.094;2022-12-05T07:16:01;9.00;;;4.57;;
26211;SDS011;13951;49.516;6.094;2022-12-05T07:18:38;13.60;;;5.53;;
26211;SDS011;13951;49.516;6.094;2022-12-05T07:21:12;11.37;;;5.17;;
26211;SDS011;13951;49.516;6.094;2022-12-05T07:23:46;13.43;;;5.90;;
26211;SDS011;13951;49.516;6.094;2022-12-05T07:26:21;12.93;;;4.80;;
26211;SDS011;13951;49.516;6.094;2022-12-05T07:28:55;11.47;;;4.87;;
26211;SDS011;13951;49.516;6.094;2022-12-05T07:31:29;10.17;;;4.57;;
26211;SDS011;13951;49.516;6.094;2022-12-05T07:34:01;10.87;;;5.17;;
26211;SDS011;13951;49.516;6.094;2022-12-05T07:36:35;10.43;;;4.50;;
26211;SDS011;13951;49.516;6.094;2022-12-05T07:39:08;13.87;;;5.43;;
26211;SDS011;13951;49.516;6.094;2022-12-05T07:41:41;10.63;;;4.90;;
26211;SDS011;13951;49.516;6.094;2022-12-05T07:44:17;14.17;;;5.43;;
26211;SDS011;13951;49.516;6.094;2022-12-05T07:46:50;17.13;;;5.97;;
26211;SDS011;13951;49.516;6.094;2022-12-05T07:49:23;11.33;;;5.10;;
26211;SDS011;13951;49.516;6.094;2022-12-05T07:51:56;13.33;;;5.77;;
26211;SDS011;13951;49.516;6.094;2022-12-05T07:54:29;16.20;;;6.80;;
26211;SDS011;13951;49.516;6.094;2022-12-05T07:57:02;10.73;;;5.50;;
26211;SDS011;13951;49.516;6.094;2022-12-05T07:59:36;15.07;;;6.95;;
26211;SDS011;13951;49.516;6.094;2022-12-05T08:02:09;11.63;;;5.03;;
26211;SDS011;13951;49.516;6.094;2022-12-05T08:04:42;13.07;;;5.60;;
26211;SDS011;13951;49.516;6.094;2022-12-05T08:07:15;10.63;;;5.13;;
26211;SDS011;13951;49.516;6.094;2022-12-05T08:09:48;11.53;;;4.87;;
26211;SDS011;13951;49.516;6.094;2022-12-05T08:12:21;11.53;;;5.53;;
26211;SDS011;13951;49.516;6.094;2022-12-05T08:14:54;13.37;;;5.60;;
26211;SDS011;13951;49.516;6.094;2022-12-05T08:17:28;12.97;;;5.93;;
26211;SDS011;13951;49.516;6.094;2022-12-05T08:20:08;14.33;;;5.37;;
26211;SDS011;13951;49.516;6.094;2022-12-05T08:22:41;13.90;;;5.83;;
26211;SDS011;13951;49.516;6.094;2022-12-05T08:25:14;15.63;;;6.13;;
26211;SDS011;13951;49.516;6.094;2022-12-05T08:27:46;13.33;;;5.47;;
26211;SDS011;13951;49.516;6.094;2022-12-05T08:30:19;11.53;;;5.07;;
26211;SDS011;13951;49.516;6.094;2022-12-05T08:32:52;14.77;;;5.03;;
26211;SDS011;13951;49.516;6.094;2022-12-05T08:35:25;11.13;;;5.00;;
26211;SDS011;13951;49.516;6.094;2022-12-05T08:37:58;10.67;;;5.50;;
26211;SDS011;13951;49.516;6.094;2022-12-05T08:40:31;10.27;;;5.17;;
26211;SDS011;13951;49.516;6.094;2022-12-05T08:43:04;11.23;;;4.50;;
26211;SDS011;13951;49.516;6.094;2022-12-05T08:45:37;17.80;;;6.17;;
26211;SDS011;13951;49.516;6.094;2022-12-05T08:48:10;10.07;;;4.90;;
26211;SDS011;13951;49.516;6.094;2022-12-05T08:50:43;13.97;;;5.20;;
26211;SDS011;13951;49.516;6.094;2022-12-05T08:53:15;14.57;;;5.93;;
26211;SDS011;13951;49.516;6.094;2022-12-05T08:55:48;10.77;;;5.57;;
26211;SDS011;13951;49.516;6.094;2022-12-05T08:58:21;10.43;;;5.37;;
26211;SDS011;13951;49.516;6.094;2022-12-05T09:01:02;16.43;;;4.87;;
26211;SDS011;13951;49.516;6.094;2022-12-05T09:03:35;15.63;;;5.47;;
26211;SDS011;13951;49.516;6.094;2022-12-05T09:06:09;13.00;;;4.63;;
26211;SDS011;13951;49.516;6.094;2022-12-05T09:08:42;14.17;;;5.57;;
26211;SDS011;13951;49.516;6.094;2022-12-05T09:11:16;11.27;;;5.43;;
26211;SDS011;13951;49.516;6.094;2022-12-05T09:13:49;15.87;;;5.77;;
26211;SDS011;13951;49.516;6.094;2022-12-05T09:16:24;12.63;;;5.37;;
26211;SDS011;13951;49.516;6.094;2022-12-05T09:18:57;11.30;;;5.27;;
26211;SDS011;13951;49.516;6.094;2022-12-05T09:21:30;10.07;;;5.17;;
26211;SDS011;13951;49.516;6.094;2022-12-05T09:24:03;13.13;;;5.33;;
26211;SDS011;13951;49.516;6.094;2022-12-05T09:26:36;12.20;;;5.47;;
26211;SDS011;13951;49.516;6.094;2022-12-05T09:29:09;13.73;;;5.37;;
26211;SDS011;13951;49.516;6.094;2022-12-05T09:31:48;9.40;;;4.50;;
26211;SDS011;13951;49.516;6.094;2022-12-05T09:34:23;12.77;;;4.53;;
26211;SDS011;13951;49.516;6.094;2022-12-05T09:36:57;13.67;;;5.50;;
26211;SDS011;13951;49.516;6.094;2022-12-05T09:39:51;10.73;;;4.40;;
26211;SDS011;13951;49.516;6.094;2022-12-05T09:50:44;12.63;;;5.77;;
26211;SDS011;13951;49.516;6.094;2022-12-05T10:12:28;12.90;;;5.67;;
26211;SDS011;13951;49.516;6.094;2022-12-05T10:15:19;10.67;;;5.27;;
26211;SDS011;13951;49.516;6.094;2022-12-05T10:20:47;12.57;;;5.53;;
26211;SDS011;13951;49.516;6.094;2022-12-05T10:23:33;11.40;;;5.10;;
26211;SDS011;13951;49.516;6.094;2022-12-05T10:26:50;13.40;;;5.50;;
26211;SDS011;13951;49.516;6.094;2022-12-05T10:29:28;12.20;;;5.50;;
26211;SDS011;13951;49.516;6.094;2022-12-05T10:32:11;12.03;;;5.60;;
26211;SDS011;13951;49.516;6.094;2022-12-05T10:34:45;8.93;;;5.37;;
26211;SDS011;13951;49.516;6.094;2022-12-05T10:37:18;8.83;;;4.43;;
26211;SDS011;13951;49.516;6.094;2022-12-05T10:39:52;9.83;;;5.20;;
26211;SDS011;13951;49.516;6.094;2022-12-05T10:42:30;11.90;;;4.67;;
26211;SDS011;13951;49.516;6.094;2022-12-05T10:45:06;11.73;;;5.13;;
26211;SDS011;13951;49.516;6.094;2022-12-05T10:47:39;8.83;;;4.50;;
26211;SDS011;13951;49.516;6.094;2022-12-05T10:52:52;9.43;;;4.73;;
26211;SDS011;13951;49.516;6.094;2022-12-05T10:55:29;9.43;;;4.63;;
26211;SDS011;13951;49.516;6.094;2022-12-05T10:58:07;11.03;;;5.40;;
26211;SDS011;13951;49.516;6.094;2022-12-05T11:00:49;8.83;;;4.63;;
26211;SDS011;13951;49.516;6.094;2022-12-05T11:05:57;11.00;;;5.40;;
26211;SDS011;13951;49.516;6.094;2022-12-05T11:08:31;13.43;;;5.57;;
26211;SDS011;13951;49.516;6.094;2022-12-05T11:11:26;11.13;;;4.97;;
26211;SDS011;13951;49.516;6.094;2022-12-05T11:14:00;9.53;;;4.27;;
26211;SDS011;13951;49.516;6.094;2022-12-05T11:16:35;10.83;;;5.10;;
26211;SDS011;13951;49.516;6.094;2022-12-05T11:19:17;13.20;;;4.63;;
26211;SDS011;13951;49.516;6.094;2022-12-05T11:21:51;9.60;;;4.37;;
26211;SDS011;13951;49.516;6.094;2022-12-05T11:24:28;9.10;;;4.20;;
26211;SDS011;13951;49.516;6.094;2022-12-05T11:30:23;7.70;;;4.17;;
26211;SDS011;13951;49.516;6.094;2022-12-05T11:35:58;12.03;;;4.23;;
26211;SDS011;13951;49.516;6.094;2022-12-05T11:38:33;8.20;;;4.10;;
26211;SDS011;13951;49.516;6.094;2022-12-05T11:41:12;9.67;;;4.23;;
26211;SDS011;13951;49.516;6.094;2022-12-05T11:44:39;9.23;;;4.30;;
26211;SDS011;13951;49.516;6.094;2022-12-05T11:52:21;11.07;;;6.13;;
26211;SDS011;13951;49.516;6.094;2022-12-05T11:54:59;8.37;;;4.50;;
26211;SDS011;13951;49.516;6.094;2022-12-05T12:06:56;7.80;;;4.57;;
26211;SDS011;13951;49.516;6.094;2022-12-05T12:12:34;7.57;;;4.43;;
26211;SDS011;13951;49.516;6.094;2022-12-05T12:28:55;7.07;;;3.60;;
26211;SDS011;13951;49.516;6.094;2022-12-05T12:39:19;5.30;;;3.20;;
26211;SDS011;13951;49.516;6.094;2022-12-05T12:47:17;1.73;;;1.40;;
26211;SDS011;13951;49.516;6.094;2022-12-05T12:50:00;1.57;;;1.40;;
26211;SDS011;13951;49.516;6.094;2022-12-05T12:55:24;1.27;;;1.13;;
26211;SDS011;13951;49.516;6.094;2022-12-05T13:05:59;1.67;;;1.33;;
26211;SDS011;13951;49.516;6.094;2022-12-05T13:08:35;2.47;;;1.80;;
26211;SDS011;13951;49.516;6.094;2022-12-05T13:11:11;2.17;;;1.63;;
26211;SDS011;13951;49.516;6.094;2022-12-05T13:13:47;1.50;;;1.40;;
26211;SDS011;13951;49.516;6.094;2022-12-05T13:16:29;1.80;;;1.60;;
26211;SDS011;13951;49.516;6.094;2022-12-05T13:19:03;2.73;;;1.60;;
26211;SDS011;13951;49.516;6.094;2022-12-05T13:21:37;2.73;;;1.67;;
26211;SDS011;13951;49.516;6.094;2022-12-05T13:24:10;2.77;;;1.80;;
26211;SDS011;13951;49.516;6.094;2022-12-05T13:26:45;1.70;;;1.40;;
26211;SDS011;13951;49.516;6.094;2022-12-05T13:29:21;1.73;;;1.40;;
26211;SDS011;13951;49.516;6.094;2022-12-05T13:31:57;2.63;;;1.40;;
26211;SDS011;13951;49.516;6.094;2022-12-05T13:37:18;1.93;;;1.50;;
26211;SDS011;13951;49.516;6.094;2022-12-05T13:43:11;3.30;;;1.73;;
26211;SDS011;13951;49.516;6.094;2022-12-05T13:45:59;3.17;;;1.83;;
26211;SDS011;13951;49.516;6.094;2022-12-05T13:48:35;3.97;;;2.70;;
26211;SDS011;13951;49.516;6.094;2022-12-05T13:51:19;2.07;;;1.70;;
26211;SDS011;13951;49.516;6.094;2022-12-05T13:53:57;2.30;;;1.70;;
26211;SDS011;13951;49.516;6.094;2022-12-05T14:07:50;4.22;;;2.38;;
26211;SDS011;13951;49.516;6.094;2022-12-05T14:13:00;3.83;;;2.23;;
26211;SDS011;13951;49.516;6.094;2022-12-05T14:15:36;2.70;;;2.07;;
26211;SDS011;13951;49.516;6.094;2022-12-05T14:18:14;4.00;;;2.13;;
26211;SDS011;13951;49.516;6.094;2022-12-05T14:26:34;4.37;;;2.00;;
26211;SDS011;13951;49.516;6.094;2022-12-05T14:29:13;2.90;;;1.77;;
26211;SDS011;13951;49.516;6.094;2022-12-05T14:31:55;4.40;;;1.80;;
26211;SDS011;13951;49.516;6.094;2022-12-05T14:34:35;2.00;;;1.70;;
26211;SDS011;13951;49.516;6.094;2022-12-05T14:39:49;3.33;;;2.10;;
26211;SDS011;13951;49.516;6.094;2022-12-05T14:42:43;2.50;;;1.80;;
26211;SDS011;13951;49.516;6.094;2022-12-05T14:45:26;2.17;;;1.40;;
26211;SDS011;13951;49.516;6.094;2022-12-05T14:48:01;2.77;;;1.90;;
26211;SDS011;13951;49.516;6.094;2022-12-05T14:50:36;2.83;;;1.90;;
26211;SDS011;13951;49.516;6.094;2022-12-05T14:55:47;2.07;;;1.57;;
26211;SDS011;13951;49.516;6.094;2022-12-05T14:58:30;4.60;;;2.80;;
26211;SDS011;13951;49.516;6.094;2022-12-05T15:01:12;2.47;;;1.60;;
26211;SDS011;13951;49.516;6.094;2022-12-05T15:09:40;2.93;;;1.70;;
26211;SDS011;13951;49.516;6.094;2022-12-05T15:12:18;2.77;;;1.50;;
26211;SDS011;13951;49.516;6.094;2022-12-05T15:14:53;2.77;;;1.90;;
26211;SDS011;13951;49.516;6.094;2022-12-05T15:17:36;4.50;;;2.23;;
26211;SDS011;13951;49.516;6.094;2022-12-05T15:26:04;1.90;;;1.70;;
26211;SDS011;13951;49.516;6.094;2022-12-05T15:37:14;12.37;;;6.37;;
26211;SDS011;13951;49.516;6.094;2022-12-05T15:42:34;3.67;;;1.73;;
26211;SDS011;13951;49.516;6.094;2022-12-05T15:47:45;2.83;;;2.00;;
26211;SDS011;13951;49.516;6.094;2022-12-05T15:50:20;4.40;;;2.33;;
26211;SDS011;13951;49.516;6.094;2022-12-05T15:53:04;4.40;;;2.43;;
26211;SDS011;13951;49.516;6.094;2022-12-05T15:55:40;3.83;;;2.30;;
26211;SDS011;13951;49.516;6.094;2022-12-05T16:01:09;5.93;;;2.33;;
26211;SDS011;13951;49.516;6.094;2022-12-05T16:03:52;4.10;;;2.50;;
26211;SDS011;13951;49.516;6.094;2022-12-05T16:08:59;6.43;;;2.77;;
26211;SDS011;13951;49.516;6.094;2022-12-05T16:14:31;4.87;;;2.77;;
26211;SDS011;13951;49.516;6.094;2022-12-05T16:17:26;5.27;;;2.57;;
26211;SDS011;13951;49.516;6.094;2022-12-05T16:20:10;4.33;;;2.20;;
26211;SDS011;13951;49.516;6.094;2022-12-05T16:22:44;5.33;;;2.93;;
26211;SDS011;13951;49.516;6.094;2022-12-05T16:25:26;5.57;;;3.07;;
26211;SDS011;13951;49.516;6.094;2022-12-05T16:28:01;4.97;;;2.77;;
26211;SDS011;13951;49.516;6.094;2022-12-05T16:30:35;3.00;;;2.30;;
26211;SDS011;13951;49.516;6.094;2022-12-05T16:33:12;5.33;;;2.67;;
26211;SDS011;13951;49.516;6.094;2022-12-05T16:35:46;6.03;;;3.17;;
26211;SDS011;13951;49.516;6.094;2022-12-05T16:38:24;7.70;;;3.33;;
26211;SDS011;13951;49.516;6.094;2022-12-05T16:40:58;4.10;;;2.60;;
26211;SDS011;13951;49.516;6.094;2022-12-05T16:48:46;3.73;;;2.43;;
26211;SDS011;13951;49.516;6.094;2022-12-05T16:51:40;5.07;;;2.80;;
26211;SDS011;13951;49.516;6.094;2022-12-05T16:54:13;5.00;;;2.87;;
26211;SDS011;13951;49.516;6.094;2022-12-05T16:56:46;4.63;;;2.70;;
26211;SDS011;13951;49.516;6.094;2022-12-05T16:59:20;7.20;;;3.50;;
26211;SDS011;13951;49.516;6.094;2022-12-05T17:01:54;5.10;;;2.83;;
26211;SDS011;13951;49.516;6.094;2022-12-05T17:04:27;4.27;;;2.73;;
26211;SDS011;13951;49.516;6.094;2022-12-05T17:07:00;5.70;;;3.30;;
26211;SDS011;13951;49.516;6.094;2022-12-05T17:09:33;4.37;;;2.70;;
26211;SDS011;13951;49.516;6.094;2022-12-05T17:12:10;7.83;;;3.47;;
26211;SDS011;13951;49.516;6.094;2022-12-05T17:14:44;5.90;;;2.97;;
26211;SDS011;13951;49.516;6.094;2022-12-05T17:17:18;4.73;;;2.83;;
26211;SDS011;13951;49.516;6.094;2022-12-05T17:19:51;6.63;;;3.47;;
26211;SDS011;13951;49.516;6.094;2022-12-05T17:22:23;7.23;;;3.20;;
26211;SDS011;13951;49.516;6.094;2022-12-05T17:24:57;5.63;;;3.00;;
26211;SDS011;13951;49.516;6.094;2022-12-05T17:27:31;4.03;;;2.80;;
26211;SDS011;13951;49.516;6.094;2022-12-05T17:30:05;5.90;;;3.53;;
26211;SDS011;13951;49.516;6.094;2022-12-05T17:32:38;6.53;;;3.80;;
26211;SDS011;13951;49.516;6.094;2022-12-05T17:35:12;9.70;;;4.20;;
26211;SDS011;13951;49.516;6.094;2022-12-05T17:37:47;6.70;;;3.63;;
26211;SDS011;13951;49.516;6.094;2022-12-05T17:40:20;4.93;;;3.23;;
26211;SDS011;13951;49.516;6.094;2022-12-05T17:42:53;5.53;;;3.50;;
26211;SDS011;13951;49.516;6.094;2022-12-05T17:45:26;6.13;;;3.23;;
26211;SDS011;13951;49.516;6.094;2022-12-05T17:48:00;11.57;;;6.23;;
26211;SDS011;13951;49.516;6.094;2022-12-05T17:50:34;12.80;;;6.53;;
26211;SDS011;13951;49.516;6.094;2022-12-05T17:53:07;4.63;;;3.30;;
26211;SDS011;13951;49.516;6.094;2022-12-05T17:55:42;8.90;;;5.07;;
26211;SDS011;13951;49.516;6.094;2022-12-05T17:58:15;8.23;;;3.57;;
26211;SDS011;13951;49.516;6.094;2022-12-05T18:00:48;6.17;;;3.73;;
26211;SDS011;13951;49.516;6.094;2022-12-05T18:03:21;9.53;;;3.93;;
26211;SDS011;13951;49.516;6.094;2022-12-05T18:05:54;13.30;;;4.53;;
26211;SDS011;13951;49.516;6.094;2022-12-05T18:08:28;7.07;;;3.77;;
26211;SDS011;13951;49.516;6.094;2022-12-05T18:11:01;7.43;;;3.37;;
26211;SDS011;13951;49.516;6.094;2022-12-05T18:13:34;6.77;;;3.57;;
26211;SDS011;13951;49.516;6.094;2022-12-05T18:16:07;9.00;;;4.07;;
26211;SDS011;13951;49.516;6.094;2022-12-05T18:18:40;6.33;;;4.00;;
26211;SDS011;13951;49.516;6.094;2022-12-05T18:21:13;10.23;;;3.90;;
26211;SDS011;13951;49.516;6.094;2022-12-05T18:23:46;7.13;;;3.90;;
26211;SDS011;13951;49.516;6.094;2022-12-05T18:26:19;8.17;;;3.33;;
26211;SDS011;13951;49.516;6.094;2022-12-05T18:28:52;8.57;;;3.60;;
26211;SDS011;13951;49.516;6.094;2022-12-05T18:31:27;7.83;;;3.50;;
26211;SDS011;13951;49.516;6.094;2022-12-05T18:34:01;6.77;;;3.80;;
26211;SDS011;13951;49.516;6.094;2022-12-05T18:36:34;7.50;;;3.77;;
26211;SDS011;13951;49.516;6.094;2022-12-05T18:39:13;5.90;;;3.13;;
26211;SDS011;13951;49.516;6.094;2022-12-05T18:41:46;5.53;;;3.47;;
26211;SDS011;13951;49.516;6.094;2022-12-05T18:44:19;8.03;;;3.10;;